Departure
Santiago Perez Airport
Arauca, CO
cloud Weather
- Wind
- VRB / 1 kt
- Visibility
- 6 SM
- Ceiling
- CAVOK
- Temp / Dew
- 25°C / 25°C
- Altimeter
- 29.91 inHg
Obs: 2026-09-01T05:00:00.000Z
Raw METAR
METAR SKUC 010500Z AUTO VRB01KT CAVOK 25/25 Q1013
route Route
Departure
Arauca, CO
Obs: 2026-09-01T05:00:00.000Z
METAR SKUC 010500Z AUTO VRB01KT CAVOK 25/25 Q1013
Arrival
Bogota, CO
Obs: 2026-09-01T05:00:00.000Z
METAR SKBO 010500Z 04004KT 9999 FEW030 BKN060 13/11 Q1030 NOSIG TAF SKBO 010455Z 0106/0206 VRB03KT 9999 SCT040 TEMPO 0121/0123 8000 DZRA BKN040TCU TX21/0117Z TN11/0110Z
| Date | Flight | Aircraft | Takeoff | Landing | Duration | Arr Δ |
|---|---|---|---|---|---|---|
| 2026-07-26 | EFY9171 | 0ACA34 | Jul 26, 17:05 UTC | Jul 26, 17:30 UTC | 25m | - |
| 2026-07-26 | NSE8711 | 0ACB8A | Jul 26, 14:30 UTC | Jul 26, 14:50 UTC | 20m | - |
| 2026-07-25 | NSE8711 | 0ACC96 | Jul 25, 16:55 UTC | Jul 25, 17:20 UTC | 25m | - |
| 2026-07-24 | NSE8715 | 0ACC96 | Jul 24, 23:50 UTC | Jul 25, 00:10 UTC | 20m | - |
| 2026-07-24 | EFY9171 | 0AC956 | Jul 24, 18:05 UTC | Jul 24, 18:30 UTC | 25m | - |
| 2026-07-24 | NSE8711 | 0ACC96 | Jul 24, 13:45 UTC | Jul 24, 14:05 UTC | 20m | - |
| 2026-07-23 | NSE8715 | 0ACCD9 | Jul 23, 23:45 UTC | Jul 24, 00:10 UTC | 25m | - |
| 2026-07-23 | NSE8711 | 0ACB0D | Jul 23, 19:40 UTC | Jul 23, 20:10 UTC | 30m | - |
| 2026-07-23 | EFY9171 | 0AC985 | Jul 23, 17:20 UTC | Jul 23, 17:40 UTC | 20m | - |
| 2026-07-21 | NSE8715 | 0ACA7F | Jul 21, 23:55 UTC | Jul 22, 00:15 UTC | 20m | - |
| 2026-07-20 | NSE8715 | 0AC332 | Jul 20, 23:30 UTC | Jul 21, 00:00 UTC | 29m | - |
| 2026-07-20 | EFY9171 | 0AC420 | Jul 20, 18:05 UTC | Jul 20, 18:30 UTC | 25m | - |
| 2026-07-18 | EFY9171 | 0AC985 | Jul 18, 18:40 UTC | Jul 18, 19:00 UTC | 20m | - |
| 2026-06-18 | EFY9173 | 0AC426 | Jun 18, 23:30 UTC | Jun 18, 23:50 UTC | 20m | - |
| 2026-06-17 | NSE8711 | 0ACC96 | Jun 17, 14:10 UTC | Jun 17, 14:40 UTC | 30m | - |
| 2026-06-15 | NSE8711 | 0ACC95 | Jun 15, 13:40 UTC | Jun 15, 14:00 UTC | 20m | - |
| 2026-06-11 | EFY9173 | 0AC424 | Jun 11, 23:35 UTC | Jun 11, 23:55 UTC | 20m | - |
| 2026-06-11 | NSE8715 | 0AC138 | Jun 11, 23:05 UTC | Jun 11, 23:45 UTC | 40m | - |
| 2026-06-10 | NSE8715 | 0AC326 | Jun 10, 23:05 UTC | Jun 10, 23:30 UTC | 25m | - |
| 2026-06-10 | NSE8711 | 0ACC95 | Jun 10, 14:25 UTC | Jun 10, 14:40 UTC | 15m | - |
| 2026-06-09 | EFY9173 | 0AC997 | Jun 9, 23:40 UTC | Jun 10, 00:10 UTC | 30m | - |
| 2026-06-09 | NSE8715 | 0AC326 | Jun 9, 23:20 UTC | Jun 9, 23:40 UTC | 20m | - |
| 2026-06-09 | NSE8711 | 0ACCC2 | Jun 9, 13:45 UTC | Jun 9, 14:10 UTC | 25m | - |
| 2026-06-09 | EFY9173 | 0AC997 | Jun 9, 00:05 UTC | Jun 9, 00:35 UTC | 30m | - |
| 2026-06-08 | NSE8715 | 0ACC97 | Jun 8, 21:10 UTC | Jun 8, 21:35 UTC | 25m | - |
| 2026-06-08 | NSE8711 | 0ACCD9 | Jun 8, 13:45 UTC | Jun 8, 14:10 UTC | 25m | - |
| 2026-06-07 | NSE8711 | 0AC326 | Jun 7, 16:50 UTC | Jun 7, 17:15 UTC | 25m | - |
| 2026-06-06 | NSE8711 | 0ACC97 | Jun 6, 16:50 UTC | Jun 6, 17:19 UTC | 30m | - |
| 2026-06-05 | NSE8715 | 0AC345 | Jun 5, 23:10 UTC | Jun 5, 23:35 UTC | 25m | - |
| 2026-06-05 | EFY9173 | 0AC956 | Jun 5, 22:35 UTC | Jun 5, 23:00 UTC | 25m | - |
| 2026-06-05 | NSE8711 | 0AC326 | Jun 5, 13:55 UTC | Jun 5, 14:25 UTC | 30m | - |
| 2026-06-04 | NSE8711 | 0ACC97 | Jun 4, 14:05 UTC | Jun 4, 14:25 UTC | 20m | - |
| 2026-06-03 | NSE8715 | 0ACA80 | Jun 3, 23:00 UTC | Jun 3, 23:20 UTC | 20m | - |
| 2026-06-03 | NSE8711 | 0AC138 | Jun 3, 14:40 UTC | Jun 3, 15:10 UTC | 30m | - |
| 2026-06-02 | EFY9173 | 0AC997 | Jun 2, 23:40 UTC | Jun 3, 00:00 UTC | 20m | - |
| 2026-06-02 | NSE8715 | 0ACC96 | Jun 2, 23:25 UTC | Jun 2, 23:50 UTC | 25m | - |
| 2026-06-01 | NSE8715 | 0ACA80 | Jun 1, 20:50 UTC | Jun 1, 21:10 UTC | 20m | - |
| 2026-06-01 | NSE8711 | 0ACC95 | Jun 1, 13:35 UTC | Jun 1, 14:00 UTC | 25m | - |
| 2026-05-31 | NSE8711 | 0AC326 | May 31, 13:55 UTC | May 31, 14:20 UTC | 25m | - |
| 2026-05-30 | NSE8711 | 0ACA80 | May 30, 19:45 UTC | May 30, 20:05 UTC | 20m | - |
| 2026-05-29 | NSE8715 | 0ACC97 | May 29, 22:45 UTC | May 29, 23:05 UTC | 20m | - |
| 2026-05-29 | NSE8711 | 0ACB8A | May 29, 13:55 UTC | May 29, 14:25 UTC | 30m | - |
| 2026-05-28 | NSE8715 | 0ACB8A | May 28, 23:00 UTC | May 28, 23:20 UTC | 20m | - |
| 2026-05-28 | NSE8711 | 0ACC96 | May 28, 13:50 UTC | May 28, 14:10 UTC | 20m | - |
| 2026-05-27 | NSE8715 | 0ACC96 | May 27, 23:00 UTC | May 27, 23:25 UTC | 25m | - |
| 2026-05-25 | NSE8715 | 0ACA7F | May 25, 22:44 UTC | May 25, 23:14 UTC | 30m | - |
| 2026-05-25 | NSE8711 | 0ACC97 | May 25, 14:30 UTC | May 25, 14:50 UTC | 20m | - |
| 2026-05-24 | NSE8711 | 0AC332 | May 24, 13:35 UTC | May 24, 14:00 UTC | 25m | - |
| 2026-05-23 | NSE8711 | 0ACC96 | May 23, 16:50 UTC | May 23, 17:10 UTC | 20m | - |
| 2026-05-21 | NSE8715 | 0ACCC2 | May 21, 23:50 UTC | May 22, 00:10 UTC | 20m | - |